createdAt,value
2022-12-06T00:01:32.216Z,0.44
2022-12-06T00:04:03.167Z,0.45
2022-12-06T00:06:33.654Z,0.41
2022-12-06T00:09:02.246Z,0.40
2022-12-06T00:11:32.949Z,0.31
2022-12-06T00:14:03.573Z,0.39
2022-12-06T00:16:34.467Z,0.37
2022-12-06T00:19:03.285Z,0.26
2022-12-06T00:21:33.352Z,0.29
2022-12-06T00:24:04.395Z,0.24
2022-12-06T00:26:33.350Z,0.19
2022-12-06T00:29:02.063Z,0.29
2022-12-06T00:31:34.462Z,0.24
2022-12-06T00:34:03.345Z,0.26
2022-12-06T00:36:34.248Z,0.31
2022-12-06T00:39:05.171Z,0.34
2022-12-06T00:41:33.886Z,0.37
2022-12-06T00:44:02.432Z,0.38
2022-12-06T00:46:33.791Z,0.41
2022-12-06T00:49:03.585Z,0.49
2022-12-06T00:51:33.865Z,0.41
2022-12-06T00:54:02.411Z,0.44
2022-12-06T00:56:31.221Z,0.40
2022-12-06T00:59:00.074Z,0.45
2022-12-06T01:01:30.104Z,0.54
2022-12-06T01:04:01.659Z,0.58
2022-12-06T01:06:33.341Z,0.64
2022-12-06T01:09:04.944Z,0.66
2022-12-06T01:11:33.992Z,0.71
2022-12-06T01:14:02.751Z,0.70
2022-12-06T01:16:32.391Z,0.70
2022-12-06T01:19:04.836Z,0.64
2022-12-06T01:21:33.249Z,0.69
2022-12-06T01:24:01.710Z,0.63
2022-12-06T01:26:32.477Z,0.62
2022-12-06T01:29:01.275Z,0.57
2022-12-06T01:31:35.827Z,0.52
2022-12-06T01:34:08.357Z,0.52
2022-12-06T01:36:36.812Z,0.56
2022-12-06T01:39:10.366Z,0.47
2022-12-06T01:41:39.619Z,0.46
2022-12-06T01:44:09.027Z,0.51
2022-12-06T01:46:43.155Z,0.51
2022-12-06T01:49:19.429Z,0.46
2022-12-06T01:51:52.478Z,0.51
2022-12-06T01:54:22.153Z,0.54
2022-12-06T01:56:53.781Z,0.60
2022-12-06T01:59:23.446Z,0.66
2022-12-06T02:01:52.250Z,0.68
2022-12-06T02:04:23.232Z,0.65
2022-12-06T02:06:53.791Z,0.70
2022-12-06T02:09:23.528Z,0.58
2022-12-06T02:11:51.967Z,0.73
2022-12-06T02:14:23.757Z,0.69
2022-12-06T02:17:02.422Z,0.85
2022-12-06T02:19:54.754Z,0.92
2022-12-06T02:22:32.213Z,0.78
2022-12-06T02:25:32.910Z,0.74
2022-12-06T02:28:29.017Z,0.70
2022-12-06T02:31:05.017Z,0.67
2022-12-06T02:33:37.349Z,0.69
2022-12-06T02:36:09.448Z,0.71
2022-12-06T02:38:44.551Z,0.69
2022-12-06T02:41:20.177Z,0.76
2022-12-06T02:43:54.632Z,0.86
2022-12-06T02:46:29.704Z,0.75
2022-12-06T02:49:01.191Z,0.73
2022-12-06T02:51:33.205Z,0.75
2022-12-06T02:54:04.029Z,0.73
2022-12-06T02:56:34.202Z,0.80
2022-12-06T02:59:02.796Z,0.82
2022-12-06T03:01:35.658Z,0.65
2022-12-06T03:04:34.908Z,0.59
2022-12-06T03:07:14.405Z,0.60
2022-12-06T03:09:56.015Z,0.68
2022-12-06T03:12:32.005Z,0.73
2022-12-06T03:15:09.734Z,0.63
2022-12-06T03:17:43.730Z,0.63
2022-12-06T03:20:17.012Z,0.70
2022-12-06T03:22:49.310Z,0.76
2022-12-06T03:25:18.309Z,0.78
2022-12-06T03:27:49.396Z,0.80
2022-12-06T03:30:17.996Z,0.74
2022-12-06T03:32:50.569Z,0.73
2022-12-06T03:35:23.713Z,0.85
2022-12-06T03:38:13.051Z,0.70
2022-12-06T03:40:46.125Z,0.67
2022-12-06T03:43:15.032Z,0.60
2022-12-06T03:45:47.946Z,0.66
2022-12-06T03:48:22.881Z,0.70
2022-12-06T03:50:58.639Z,0.66
2022-12-06T03:53:27.190Z,0.66
2022-12-06T03:55:55.619Z,0.61
2022-12-06T03:58:24.113Z,0.64
2022-12-06T04:00:52.602Z,0.61
2022-12-06T04:03:22.473Z,0.69
2022-12-06T04:05:50.912Z,0.70
2022-12-06T04:08:19.369Z,0.80
2022-12-06T04:10:47.871Z,0.86
2022-12-06T04:13:19.729Z,0.91
2022-12-06T04:15:48.632Z,1.02
2022-12-06T04:18:18.481Z,1.00
2022-12-06T04:21:07.702Z,1.01
2022-12-06T04:23:38.370Z,0.95
2022-12-06T04:26:09.397Z,1.00
2022-12-06T04:28:55.231Z,0.98
2022-12-06T04:31:41.713Z,0.95
2022-12-06T04:34:27.503Z,1.03
2022-12-06T04:37:14.968Z,1.13
2022-12-06T04:39:43.644Z,1.18
2022-12-06T04:42:30.182Z,1.24
2022-12-06T04:44:58.630Z,1.28
2022-12-06T04:47:27.373Z,1.22
2022-12-06T04:49:55.835Z,1.13
2022-12-06T04:52:25.613Z,1.14
2022-12-06T04:54:54.009Z,1.14
2022-12-06T04:57:22.441Z,1.02
2022-12-06T04:59:51.157Z,1.00
2022-12-06T05:02:19.574Z,1.04
2022-12-06T05:04:47.989Z,1.08
2022-12-06T05:07:16.410Z,1.14
2022-12-06T05:09:46.150Z,1.16
2022-12-06T05:12:14.624Z,1.13
2022-12-06T05:14:42.985Z,1.20
2022-12-06T05:17:11.300Z,1.29
2022-12-06T05:19:39.604Z,1.29
2022-12-06T05:22:07.993Z,1.31
2022-12-06T05:24:36.365Z,1.25
2022-12-06T05:27:06.204Z,1.30
2022-12-06T05:29:34.555Z,1.29
2022-12-06T05:32:02.984Z,1.29
2022-12-06T05:34:31.413Z,1.24
2022-12-06T05:36:59.846Z,1.23
2022-12-06T05:39:29.254Z,1.16
2022-12-06T05:41:57.929Z,1.13
2022-12-06T05:44:27.782Z,1.11
2022-12-06T05:46:56.235Z,1.26
2022-12-06T05:49:24.533Z,1.24
2022-12-06T05:51:52.899Z,1.24
2022-12-06T05:54:21.584Z,1.28
2022-12-06T05:56:50.542Z,1.41
2022-12-06T05:59:19.323Z,1.40
2022-12-06T06:01:49.327Z,1.41
2022-12-06T06:04:17.878Z,1.48
2022-12-06T06:06:46.296Z,1.40
2022-12-06T06:09:14.643Z,1.42
2022-12-06T06:11:42.992Z,1.57
2022-12-06T06:14:11.333Z,1.53
2022-12-06T06:16:39.813Z,1.49
2022-12-06T06:19:09.608Z,1.46
2022-12-06T06:21:38.009Z,1.50
2022-12-06T06:24:07.117Z,1.44
2022-12-06T06:26:35.503Z,1.31
2022-12-06T06:29:04.010Z,1.50
2022-12-06T06:31:32.498Z,1.42
2022-12-06T06:34:00.850Z,1.40
2022-12-06T06:36:30.585Z,1.48
2022-12-06T06:38:59.830Z,1.40
2022-12-06T06:41:28.460Z,1.37
2022-12-06T06:43:56.772Z,1.46
2022-12-06T06:46:26.062Z,1.63
2022-12-06T06:48:54.507Z,1.62
2022-12-06T06:51:23.272Z,1.59
2022-12-06T06:53:53.017Z,1.49
2022-12-06T06:56:21.368Z,1.46
2022-12-06T06:58:49.782Z,1.52
2022-12-06T07:01:20.063Z,1.64
2022-12-06T07:03:48.464Z,1.61
2022-12-06T07:06:16.818Z,1.64
2022-12-06T07:08:46.375Z,1.65
2022-12-06T07:11:16.613Z,1.64
2022-12-06T07:13:49.628Z,1.61
2022-12-06T07:16:21.110Z,1.70
2022-12-06T07:18:49.609Z,1.70
2022-12-06T07:21:18.245Z,1.71
2022-12-06T07:23:46.861Z,1.77
2022-12-06T07:26:19.102Z,1.83
2022-12-06T07:28:48.724Z,1.79
2022-12-06T07:31:19.076Z,1.79
2022-12-06T07:33:48.723Z,1.76
2022-12-06T07:36:17.202Z,1.78
2022-12-06T07:38:50.036Z,1.79
2022-12-06T07:41:39.131Z,1.82
2022-12-06T07:44:33.623Z,1.75
2022-12-06T07:47:02.717Z,1.85
2022-12-06T07:49:31.369Z,1.72
2022-12-06T07:51:59.998Z,1.85
2022-12-06T07:54:28.905Z,1.80
2022-12-06T07:56:58.681Z,1.94
2022-12-06T07:59:27.212Z,1.87
2022-12-06T08:01:55.867Z,1.82
2022-12-06T08:04:25.389Z,1.85
2022-12-06T08:06:54.104Z,1.89
2022-12-06T08:09:22.482Z,1.75
2022-12-06T08:11:51.091Z,1.85
2022-12-06T08:14:20.798Z,1.85
2022-12-06T08:16:49.143Z,1.79
2022-12-06T08:19:17.536Z,1.81
2022-12-06T08:21:46.085Z,1.83
2022-12-06T08:24:14.547Z,1.82
2022-12-06T08:26:42.949Z,1.83
2022-12-06T08:29:11.263Z,1.93
2022-12-06T08:31:41.838Z,1.98
2022-12-06T08:34:10.248Z,2.11
2022-12-06T08:36:39.898Z,2.12
2022-12-06T08:39:09.615Z,2.09
2022-12-06T08:41:55.450Z,2.19
2022-12-06T08:44:24.942Z,2.24
2022-12-06T08:46:55.199Z,2.32
2022-12-06T08:49:25.114Z,2.30
2022-12-06T08:51:53.866Z,2.38
2022-12-06T08:54:24.429Z,2.53
2022-12-06T08:56:53.210Z,2.52
2022-12-06T08:59:21.848Z,2.48
2022-12-06T09:01:50.263Z,2.50
2022-12-06T09:04:20.055Z,2.51
2022-12-06T09:06:48.517Z,2.53
2022-12-06T09:09:19.330Z,2.43
2022-12-06T09:11:49.945Z,2.54
2022-12-06T09:14:22.283Z,2.43
2022-12-06T09:16:52.236Z,2.50
2022-12-06T09:19:22.134Z,2.64
2022-12-06T09:21:50.702Z,2.63
2022-12-06T09:24:19.573Z,2.65
2022-12-06T09:26:48.384Z,2.60
2022-12-06T09:29:17.174Z,2.72
2022-12-06T09:31:45.841Z,2.71
2022-12-06T09:34:14.496Z,2.71
2022-12-06T09:36:47.426Z,2.70
2022-12-06T09:39:19.075Z,2.73
2022-12-06T09:42:20.200Z,2.75
2022-12-06T09:45:13.819Z,2.71
2022-12-06T09:47:58.577Z,2.80
2022-12-06T09:50:35.689Z,2.75
2022-12-06T09:53:23.449Z,2.84
2022-12-06T09:56:03.767Z,2.72
2022-12-06T09:58:46.636Z,2.75
2022-12-06T10:01:24.235Z,2.72
2022-12-06T10:04:08.843Z,2.74
2022-12-06T10:06:44.574Z,2.78
2022-12-06T10:09:23.622Z,2.91
2022-12-06T10:12:07.584Z,3.14
2022-12-06T10:14:53.616Z,3.20
2022-12-06T10:17:30.369Z,3.25
2022-12-06T10:20:06.764Z,3.36
2022-12-06T10:22:48.074Z,3.42
2022-12-06T10:25:23.724Z,3.45
2022-12-06T10:27:58.048Z,3.49
2022-12-06T10:30:26.420Z,3.48
2022-12-06T10:33:03.701Z,3.51
2022-12-06T10:35:44.187Z,3.44
2022-12-06T10:38:23.454Z,3.54
2022-12-06T10:41:03.933Z,3.55
2022-12-06T10:43:39.582Z,3.39
2022-12-06T10:46:30.816Z,3.49
2022-12-06T10:49:07.366Z,3.51
2022-12-06T10:51:42.869Z,3.47
2022-12-06T10:54:23.141Z,3.43
2022-12-06T10:56:55.956Z,3.48
2022-12-06T10:59:32.475Z,3.45
2022-12-06T11:02:13.576Z,3.61
2022-12-06T11:04:43.224Z,3.69
2022-12-06T11:07:17.562Z,3.76
2022-12-06T11:09:50.053Z,3.74
2022-12-06T11:12:30.765Z,3.71
2022-12-06T11:15:05.528Z,3.74
2022-12-06T11:17:38.127Z,3.83
2022-12-06T11:20:16.271Z,3.86
2022-12-06T11:22:53.394Z,3.92
2022-12-06T11:25:29.390Z,4.05
2022-12-06T11:28:10.167Z,4.03
2022-12-06T11:30:38.862Z,4.09
2022-12-06T11:33:07.314Z,4.20
2022-12-06T11:35:35.712Z,4.26
2022-12-06T11:38:08.614Z,4.16
2022-12-06T11:40:42.986Z,4.20
2022-12-06T11:43:19.054Z,4.07
2022-12-06T11:45:49.462Z,4.10
2022-12-06T11:48:20.680Z,4.21
2022-12-06T11:50:50.815Z,4.33
2022-12-06T11:53:25.260Z,4.31
2022-12-06T11:55:58.196Z,4.37
2022-12-06T11:58:36.098Z,4.32
2022-12-06T12:01:06.455Z,4.24
2022-12-06T12:03:36.721Z,4.18
2022-12-06T12:06:10.087Z,4.26
2022-12-06T12:08:38.659Z,4.24
2022-12-06T12:11:07.473Z,4.44
2022-12-06T12:14:00.321Z,4.59
2022-12-06T12:16:33.934Z,4.75
2022-12-06T12:19:05.054Z,4.71
2022-12-06T12:21:55.680Z,4.79
2022-12-06T12:27:51.339Z,4.90
2022-12-06T12:30:27.668Z,4.83
2022-12-06T12:33:23.384Z,4.82
2022-12-06T12:35:55.293Z,4.97
2022-12-06T12:38:45.944Z,5.02
2022-12-06T12:41:28.785Z,5.04
2022-12-06T12:44:35.357Z,5.51
2022-12-06T12:46:56.605Z,5.65
2022-12-06T12:49:32.338Z,5.29
2022-12-06T12:52:28.161Z,5.21
2022-12-06T12:55:01.916Z,5.14
2022-12-06T12:57:30.805Z,5.11
2022-12-06T13:00:10.835Z,5.09
2022-12-06T13:02:42.906Z,5.11
2022-12-06T13:05:34.360Z,5.18
2022-12-06T13:08:19.916Z,5.17
2022-12-06T13:10:55.515Z,5.54
2022-12-06T13:13:41.103Z,5.72
2022-12-06T13:16:14.298Z,5.81
2022-12-06T13:18:47.140Z,6.50
2022-12-06T13:21:29.581Z,6.80
2022-12-06T13:24:05.493Z,8.37
2022-12-06T13:26:36.106Z,8.41
2022-12-06T13:29:24.561Z,7.79
2022-12-06T13:31:55.689Z,8.32
2022-12-06T13:34:36.103Z,8.82
2022-12-06T13:37:28.045Z,9.60
2022-12-06T13:39:56.828Z,9.98
2022-12-06T13:42:58.528Z,9.85
2022-12-06T13:45:42.727Z,10.37
2022-12-06T13:48:39.841Z,10.14
2022-12-06T13:51:49.777Z,9.17
2022-12-06T13:54:41.448Z,7.28
2022-12-06T13:57:39.257Z,6.50
2022-12-06T14:00:37.359Z,5.78
2022-12-06T14:03:35.731Z,5.49
2022-12-06T14:06:14.307Z,5.28
2022-12-06T14:08:53.881Z,5.11
2022-12-06T14:11:25.644Z,4.98
2022-12-06T14:14:02.483Z,4.73
2022-12-06T14:16:44.487Z,4.68
2022-12-06T14:19:18.152Z,4.63
2022-12-06T14:21:54.255Z,4.48
2022-12-06T14:24:42.375Z,4.37
2022-12-06T14:27:15.569Z,4.34
2022-12-06T14:29:45.739Z,4.28
2022-12-06T14:32:31.224Z,4.25
2022-12-06T14:35:03.868Z,4.12
2022-12-06T14:37:32.356Z,4.04
2022-12-06T14:40:16.876Z,3.91
2022-12-06T14:43:02.769Z,3.75
2022-12-06T14:45:33.859Z,3.67
2022-12-06T14:48:15.936Z,3.53
2022-12-06T14:50:45.010Z,3.39
2022-12-06T14:53:15.533Z,3.19
2022-12-06T14:56:10.248Z,3.02
2022-12-06T14:58:43.576Z,3.04
2022-12-06T15:01:17.507Z,2.90
2022-12-06T15:04:02.263Z,2.93
2022-12-06T15:06:32.273Z,3.09
2022-12-06T15:09:13.917Z,3.10
2022-12-06T15:12:40.258Z,3.05
2022-12-06T15:15:37.403Z,2.89
2022-12-06T15:18:17.656Z,2.79
2022-12-06T15:21:00.529Z,2.77
2022-12-06T15:23:31.197Z,2.69
2022-12-06T15:25:59.898Z,2.73
2022-12-06T15:28:29.979Z,2.71
2022-12-06T15:31:07.245Z,2.56
2022-12-06T15:33:35.708Z,2.54
2022-12-06T15:36:04.320Z,2.48
2022-12-06T15:38:32.882Z,2.32
2022-12-06T15:41:21.705Z,2.20
2022-12-06T15:43:52.561Z,2.27
2022-12-06T15:46:23.932Z,2.28
2022-12-06T15:48:53.304Z,2.37
2022-12-06T15:51:24.931Z,2.43
2022-12-06T15:53:54.542Z,2.38
2022-12-06T15:56:24.763Z,2.35
2022-12-06T15:58:54.684Z,2.36
2022-12-06T16:01:24.775Z,2.52
2022-12-06T16:03:55.049Z,2.54
2022-12-06T16:06:26.076Z,2.53
2022-12-06T16:08:54.824Z,2.61
2022-12-06T16:11:26.047Z,2.55
2022-12-06T16:13:55.865Z,2.63
2022-12-06T16:16:24.364Z,2.60
2022-12-06T16:18:53.765Z,2.58
2022-12-06T16:21:24.281Z,2.60
2022-12-06T16:24:16.506Z,2.71
2022-12-06T16:26:45.983Z,2.70
2022-12-06T16:29:17.978Z,2.68
2022-12-06T16:31:46.584Z,2.66
2022-12-06T16:34:15.397Z,2.75
2022-12-06T16:36:59.121Z,2.66
2022-12-06T16:39:28.482Z,2.71
2022-12-06T16:41:57.013Z,2.62
2022-12-06T16:44:26.795Z,2.62
2022-12-06T16:46:55.279Z,2.70
2022-12-06T16:49:55.943Z,2.64
2022-12-06T16:52:14.641Z,2.66
2022-12-06T16:54:43.130Z,2.62
2022-12-06T16:57:12.896Z,2.62
2022-12-06T16:59:43.491Z,2.63
2022-12-06T17:02:26.805Z,2.61
2022-12-06T17:04:55.864Z,2.46
2022-12-06T17:07:24.702Z,2.34
2022-12-06T17:09:53.184Z,2.23
2022-12-06T17:12:21.643Z,2.13
2022-12-06T17:14:52.011Z,2.06
2022-12-06T17:17:21.874Z,2.17
2022-12-06T17:19:50.696Z,2.11
2022-12-06T17:22:19.588Z,2.17
2022-12-06T17:24:48.100Z,2.12
2022-12-06T17:27:17.044Z,2.12
2022-12-06T17:29:45.737Z,2.23
2022-12-06T17:32:15.640Z,2.26
2022-12-06T17:34:44.078Z,2.24
2022-12-06T17:37:12.467Z,2.37
2022-12-06T17:39:40.923Z,2.46
2022-12-06T17:42:29.309Z,2.43
2022-12-06T17:44:58.766Z,2.46
2022-12-06T17:47:28.657Z,2.40
2022-12-06T17:49:57.541Z,2.40
2022-12-06T17:52:26.217Z,2.44
2022-12-06T17:54:54.599Z,2.42
2022-12-06T17:57:23.114Z,2.44
2022-12-06T17:59:51.582Z,2.43
2022-12-06T18:02:23.982Z,2.48
2022-12-06T18:04:55.940Z,2.40
2022-12-06T18:07:24.777Z,2.41
2022-12-06T18:09:54.203Z,2.40
2022-12-06T18:12:22.748Z,2.31
2022-12-06T18:14:51.223Z,2.32
2022-12-06T18:17:19.823Z,2.32
2022-12-06T18:19:48.483Z,2.36
2022-12-06T18:22:19.536Z,2.36
2022-12-06T18:24:48.006Z,2.31
2022-12-06T18:27:17.448Z,2.44
2022-12-06T18:29:45.951Z,2.39
2022-12-06T18:32:16.259Z,2.44
2022-12-06T18:34:44.786Z,2.44
2022-12-06T18:37:13.125Z,2.48
2022-12-06T18:39:42.955Z,2.53
2022-12-06T18:42:11.431Z,2.49
2022-12-06T18:44:39.741Z,2.50
2022-12-06T18:47:08.126Z,2.47
2022-12-06T18:49:36.761Z,2.42
2022-12-06T18:52:05.206Z,2.43
2022-12-06T18:54:33.789Z,2.47
2022-12-06T18:57:03.521Z,2.43
2022-12-06T18:59:31.952Z,2.42
2022-12-06T19:02:00.295Z,2.48
2022-12-06T19:04:28.673Z,2.56
2022-12-06T19:06:57.092Z,2.62
2022-12-06T19:09:25.440Z,2.60
2022-12-06T19:11:53.900Z,2.58
2022-12-06T19:14:23.749Z,2.60
2022-12-06T19:16:53.252Z,2.56
2022-12-06T19:19:23.891Z,2.60
2022-12-06T19:21:53.949Z,2.56
2022-12-06T19:24:24.615Z,2.62
2022-12-06T19:26:54.671Z,2.61
2022-12-06T19:29:25.263Z,2.54
2022-12-06T19:31:53.680Z,2.67
2022-12-06T19:34:24.607Z,2.60
2022-12-06T19:36:54.254Z,2.67
2022-12-06T19:39:23.714Z,2.63
2022-12-06T19:42:09.784Z,2.59
2022-12-06T19:44:39.402Z,2.52
2022-12-06T19:47:07.680Z,2.53
2022-12-06T19:49:36.074Z,2.58
2022-12-06T19:52:04.788Z,2.54
2022-12-06T19:54:35.753Z,2.55
2022-12-06T19:57:05.003Z,2.52
2022-12-06T19:59:35.470Z,2.46
2022-12-06T20:02:06.276Z,2.56
2022-12-06T20:04:37.084Z,2.57
2022-12-06T20:07:05.533Z,2.55
2022-12-06T20:09:34.465Z,2.48
2022-12-06T20:12:04.438Z,2.50
2022-12-06T20:14:38.983Z,2.58
2022-12-06T20:17:10.639Z,2.62
2022-12-06T20:19:39.543Z,2.56
2022-12-06T20:22:07.859Z,2.62
2022-12-06T20:24:36.327Z,2.53
2022-12-06T20:27:04.847Z,2.56
2022-12-06T20:29:33.410Z,2.53
2022-12-06T20:32:02.875Z,2.46
2022-12-06T20:34:34.164Z,2.38
2022-12-06T20:37:04.603Z,2.53
2022-12-06T20:39:35.200Z,2.50
2022-12-06T20:42:05.889Z,2.54
2022-12-06T20:44:34.674Z,2.53
2022-12-06T20:47:03.187Z,2.53
2022-12-06T20:49:33.053Z,2.48
2022-12-06T20:52:02.744Z,2.53
2022-12-06T20:54:32.006Z,2.52
2022-12-06T20:57:00.732Z,2.51
2022-12-06T20:59:29.597Z,2.51
2022-12-06T21:01:58.192Z,2.52
2022-12-06T21:04:27.365Z,2.53
2022-12-06T21:06:57.505Z,2.56
2022-12-06T21:09:26.395Z,2.58
2022-12-06T21:11:54.740Z,2.65
2022-12-06T21:14:23.210Z,2.63
2022-12-06T21:16:51.640Z,2.68
2022-12-06T21:19:20.973Z,2.59
2022-12-06T21:21:53.255Z,2.60
2022-12-06T21:24:23.396Z,2.61
2022-12-06T21:26:51.782Z,2.63
2022-12-06T21:29:28.385Z,2.63
2022-12-06T21:31:58.485Z,2.65
2022-12-06T21:34:26.831Z,2.57
2022-12-06T21:36:55.160Z,2.60
2022-12-06T21:39:24.919Z,2.59
2022-12-06T21:41:53.933Z,2.63
2022-12-06T21:44:22.377Z,2.60
2022-12-06T21:46:53.120Z,2.59
2022-12-06T21:49:21.644Z,2.58
2022-12-06T21:51:52.678Z,2.69
2022-12-06T21:54:24.906Z,2.70
2022-12-06T21:56:53.297Z,2.68
2022-12-06T21:59:23.816Z,2.62
2022-12-06T22:01:52.297Z,2.64
2022-12-06T22:04:20.792Z,2.61
2022-12-06T22:06:49.298Z,2.62
2022-12-06T22:09:17.607Z,2.73
2022-12-06T22:11:47.653Z,2.71
2022-12-06T22:14:16.032Z,2.69
2022-12-06T22:16:44.410Z,2.67
2022-12-06T22:19:12.767Z,2.74
2022-12-06T22:21:41.280Z,2.67
2022-12-06T22:24:10.050Z,2.61
2022-12-06T22:26:38.441Z,2.68
2022-12-06T22:29:08.233Z,2.73
2022-12-06T22:31:36.816Z,2.73
2022-12-06T22:34:05.322Z,2.63
2022-12-06T22:36:34.045Z,2.67
2022-12-06T22:39:03.919Z,2.72
2022-12-06T22:41:32.870Z,2.74
2022-12-06T22:44:03.454Z,2.73
2022-12-06T22:46:36.253Z,2.75
2022-12-06T22:49:06.234Z,2.73
2022-12-06T22:51:36.361Z,2.72
2022-12-06T22:54:06.887Z,2.81
2022-12-06T22:56:35.280Z,2.82
2022-12-06T22:59:03.792Z,2.78
2022-12-06T23:01:34.963Z,2.79
2022-12-06T23:04:06.855Z,2.75
2022-12-06T23:06:36.521Z,2.82
2022-12-06T23:09:05.825Z,2.82
2022-12-06T23:11:36.211Z,2.85
2022-12-06T23:14:05.316Z,2.81
2022-12-06T23:16:35.587Z,2.78
2022-12-06T23:19:04.805Z,2.83
2022-12-06T23:21:35.088Z,2.89
2022-12-06T23:24:06.462Z,2.89
2022-12-06T23:26:39.585Z,2.98
2022-12-06T23:29:09.095Z,2.95
2022-12-06T23:31:41.098Z,2.88
2022-12-06T23:34:13.436Z,2.86
2022-12-06T23:36:42.368Z,2.87
2022-12-06T23:39:11.266Z,2.88
2022-12-06T23:41:40.381Z,2.88
2022-12-06T23:44:10.582Z,2.89
2022-12-06T23:46:41.094Z,2.92
2022-12-06T23:49:15.803Z,2.97
2022-12-06T23:51:44.791Z,2.92
2022-12-06T23:54:14.924Z,2.85
2022-12-06T23:56:44.487Z,2.92
2022-12-06T23:59:14.953Z,2.92
